createdAt,value
2019-01-21T00:00:19.444Z,68.67
2019-01-21T00:02:47.843Z,69.90
2019-01-21T00:05:16.260Z,66.82
2019-01-21T00:07:44.665Z,65.03
2019-01-21T00:10:13.081Z,63.83
2019-01-21T00:12:41.477Z,66.60
2019-01-21T00:15:10.232Z,67.05
2019-01-21T00:17:38.634Z,66.95
2019-01-21T00:20:07.699Z,68.22
2019-01-21T00:22:36.114Z,68.97
2019-01-21T00:25:06.415Z,72.75
2019-01-21T00:27:34.816Z,69.22
2019-01-21T00:30:03.492Z,74.12
2019-01-21T00:32:31.907Z,74.87
2019-01-21T00:35:00.360Z,76.90
2019-01-21T00:37:28.832Z,75.17
2019-01-21T00:39:57.244Z,74.85
2019-01-21T00:42:27.594Z,75.80
2019-01-21T00:44:55.972Z,75.95
2019-01-21T00:47:29.753Z,75.22
2019-01-21T00:49:54.768Z,80.53
2019-01-21T00:52:23.168Z,72.40
2019-01-21T00:54:51.628Z,79.07
2019-01-21T00:57:20.048Z,77.90
2019-01-21T00:59:48.467Z,72.03
2019-01-21T01:02:16.862Z,74.25
2019-01-21T01:04:45.328Z,78.80
2019-01-21T01:07:13.735Z,75.83
2019-01-21T01:09:42.139Z,69.80
2019-01-21T01:12:10.539Z,72.90
2019-01-21T01:14:38.947Z,72.95
2019-01-21T01:17:07.351Z,68.00
2019-01-21T01:19:36.099Z,70.90
2019-01-21T01:22:04.508Z,72.17
2019-01-21T01:24:32.906Z,69.23
2019-01-21T01:27:01.311Z,71.35
2019-01-21T01:29:29.721Z,75.08
2019-01-21T01:31:58.128Z,70.55
2019-01-21T01:34:26.539Z,73.97
2019-01-21T01:36:54.952Z,72.97
2019-01-21T01:39:23.351Z,66.17
2019-01-21T01:41:51.759Z,65.03
2019-01-21T01:44:20.497Z,68.50
2019-01-21T01:46:48.904Z,66.55
2019-01-21T01:49:17.318Z,71.55
2019-01-21T01:51:45.727Z,69.05
2019-01-21T01:54:14.135Z,69.58
2019-01-21T01:56:42.543Z,73.55
2019-01-21T01:59:11.521Z,64.57
2019-01-21T02:01:40.244Z,66.92
2019-01-21T02:04:08.712Z,66.75
2019-01-21T02:06:37.123Z,72.93
2019-01-21T02:09:07.376Z,66.37
2019-01-21T02:11:36.167Z,73.33
2019-01-21T02:14:05.016Z,66.37
2019-01-21T02:16:33.419Z,64.40
2019-01-21T02:19:01.832Z,68.75
2019-01-21T02:21:32.575Z,70.42
2019-01-21T02:24:04.408Z,63.70
2019-01-21T02:26:35.716Z,69.07
2019-01-21T02:29:07.244Z,64.85
2019-01-21T02:31:44.463Z,65.80
2019-01-21T02:34:37.087Z,63.87
2019-01-21T02:37:28.018Z,65.80
2019-01-21T02:40:22.592Z,68.15
2019-01-21T02:43:09.253Z,67.53
2019-01-21T02:46:03.757Z,66.53
2019-01-21T02:48:53.020Z,69.37
2019-01-21T02:51:41.114Z,68.30
2019-01-21T02:54:24.335Z,67.33
2019-01-21T02:56:58.822Z,66.37
2019-01-21T02:59:39.089Z,66.50
2019-01-21T03:02:31.272Z,69.65
2019-01-21T03:05:11.307Z,72.80
2019-01-21T03:07:57.616Z,67.03
2019-01-21T03:10:37.976Z,65.97
2019-01-21T03:13:23.899Z,69.25
2019-01-21T03:16:07.491Z,73.15
2019-01-21T03:18:56.384Z,71.70
2019-01-21T03:21:27.884Z,74.70
2019-01-21T03:24:17.903Z,77.62
2019-01-21T03:27:15.043Z,79.20
2019-01-21T03:29:55.273Z,71.95
2019-01-21T03:32:29.683Z,73.00
2019-01-21T03:35:01.440Z,76.92
2019-01-21T03:37:39.000Z,74.77
2019-01-21T03:40:22.349Z,79.17
2019-01-21T03:42:53.843Z,72.92
2019-01-21T03:45:27.916Z,68.50
2019-01-21T03:47:59.816Z,72.10
2019-01-21T03:50:50.810Z,75.67
2019-01-21T03:53:34.408Z,72.30
2019-01-21T03:56:05.397Z,68.72
2019-01-21T03:58:57.494Z,70.20
2019-01-21T04:01:34.668Z,73.90
2019-01-21T04:04:15.053Z,70.28
2019-01-21T04:06:49.276Z,74.53
2019-01-21T04:09:38.957Z,74.60
2019-01-21T04:12:22.628Z,64.25
2019-01-21T04:14:56.839Z,82.20
2019-01-21T04:17:37.856Z,75.80
2019-01-21T04:20:15.167Z,73.78
2019-01-21T04:22:55.624Z,76.07
2019-01-21T04:25:36.317Z,73.12
2019-01-21T04:28:22.999Z,69.90
2019-01-21T04:30:56.938Z,74.80
2019-01-21T04:34:03.286Z,73.17
2019-01-21T04:36:37.356Z,72.40
2019-01-21T04:39:26.295Z,70.70
2019-01-21T04:42:26.408Z,67.07
2019-01-21T04:45:00.780Z,73.33
2019-01-21T04:47:56.367Z,69.10
2019-01-21T04:50:33.367Z,89.75
2019-01-21T04:53:21.437Z,67.80
2019-01-21T04:56:09.611Z,65.60
2019-01-21T04:58:47.263Z,68.30
2019-01-21T05:01:21.969Z,69.17
2019-01-21T05:03:56.625Z,67.65
2019-01-21T05:06:47.597Z,66.80
2019-01-21T05:09:31.184Z,64.30
2019-01-21T05:12:08.760Z,67.55
2019-01-21T05:14:52.039Z,64.35
2019-01-21T05:17:41.627Z,70.25
2019-01-21T05:20:34.013Z,61.25
2019-01-21T05:23:11.165Z,62.15
2019-01-21T05:25:45.320Z,63.65
2019-01-21T05:28:23.384Z,63.08
2019-01-21T05:31:28.090Z,67.00
2019-01-21T05:34:02.515Z,66.60
2019-01-21T05:36:39.566Z,62.58
2019-01-21T05:39:28.376Z,61.05
2019-01-21T05:42:22.503Z,64.23
2019-01-21T05:44:59.812Z,64.07
2019-01-21T05:47:31.295Z,67.42
2019-01-21T05:50:28.431Z,64.30
2019-01-21T05:53:05.786Z,63.10
2019-01-21T05:55:55.389Z,59.93
2019-01-21T05:58:49.131Z,71.07
2019-01-21T06:01:44.889Z,59.77
2019-01-21T06:04:37.541Z,62.00
2019-01-21T06:07:20.760Z,58.35
2019-01-21T06:09:58.233Z,62.80
2019-01-21T06:12:29.703Z,62.23
2019-01-21T06:15:16.448Z,62.55
2019-01-21T06:18:02.977Z,60.88
2019-01-21T06:20:55.763Z,58.28
2019-01-21T06:23:29.981Z,60.12
2019-01-21T06:26:28.344Z,59.80
2019-01-21T06:29:08.864Z,60.55
2019-01-21T06:31:49.352Z,61.73
2019-01-21T06:34:37.820Z,60.25
2019-01-21T06:37:15.408Z,66.23
2019-01-21T06:40:03.477Z,61.10
2019-01-21T06:42:52.855Z,58.08
2019-01-21T06:45:27.265Z,62.78
2019-01-21T06:48:13.797Z,61.55
2019-01-21T06:51:01.608Z,61.40
2019-01-21T06:53:35.669Z,58.65
2019-01-21T07:00:03.512Z,62.55
2019-01-21T07:02:54.175Z,67.60
2019-01-21T07:05:40.202Z,66.15
2019-01-21T07:08:20.499Z,67.15
2019-01-21T07:10:54.851Z,64.03
2019-01-21T07:13:49.203Z,70.28
2019-01-21T07:16:32.680Z,72.70
2019-01-21T07:19:18.583Z,68.65
2019-01-21T07:22:01.797Z,67.25
2019-01-21T07:24:51.416Z,70.72
2019-01-21T07:27:25.333Z,70.42
2019-01-21T07:30:16.539Z,71.97
2019-01-21T07:33:06.289Z,65.20
2019-01-21T07:35:46.812Z,69.12
2019-01-21T07:38:20.951Z,71.82
2019-01-21T07:40:55.356Z,66.97
2019-01-21T07:43:43.617Z,68.00
2019-01-21T07:46:23.552Z,68.83
2019-01-21T07:49:17.712Z,66.42
2019-01-21T07:55:32.659Z,63.98
2019-01-21T07:58:12.971Z,64.85
2019-01-21T08:00:47.717Z,65.85
2019-01-21T08:03:25.328Z,67.90
2019-01-21T08:05:56.823Z,61.37
2019-01-21T08:08:37.099Z,62.27
2019-01-21T08:11:26.738Z,75.62
2019-01-21T08:14:13.152Z,64.00
2019-01-21T08:17:07.264Z,60.05
2019-01-21T08:19:47.520Z,63.38
2019-01-21T08:22:24.919Z,64.45
2019-01-21T08:24:58.978Z,64.80
2019-01-21T08:27:38.795Z,69.45
2019-01-21T08:30:10.324Z,66.30
2019-01-21T08:33:14.995Z,65.17
2019-01-21T08:36:02.837Z,62.85
2019-01-21T08:38:49.093Z,62.23
2019-01-21T08:41:38.382Z,61.77
2019-01-21T08:44:33.984Z,57.80
2019-01-21T08:47:11.307Z,57.38
2019-01-21T08:49:48.027Z,60.12
2019-01-21T08:52:22.365Z,60.95
2019-01-21T08:55:12.167Z,62.45
2019-01-21T08:57:55.735Z,74.35
2019-01-21T09:00:44.676Z,57.43
2019-01-21T09:03:16.464Z,56.28
2019-01-21T09:05:50.532Z,56.10
2019-01-21T09:08:37.621Z,54.45
2019-01-21T09:11:19.385Z,55.23
2019-01-21T09:13:56.653Z,56.68
2019-01-21T09:16:34.036Z,53.40
2019-01-21T09:19:21.913Z,54.77
2019-01-21T09:22:05.431Z,76.15
2019-01-21T09:24:49.824Z,54.85
2019-01-21T09:27:27.196Z,55.35
2019-01-21T09:30:07.529Z,57.60
2019-01-21T09:32:39.023Z,56.45
2019-01-21T09:35:28.557Z,53.23
2019-01-21T09:38:19.191Z,54.18
2019-01-21T09:41:02.421Z,52.00
2019-01-21T09:43:42.350Z,57.93
2019-01-21T09:46:16.553Z,54.70
2019-01-21T09:48:43.892Z,53.58
2019-01-21T09:51:13.367Z,53.33
2019-01-21T09:53:43.828Z,50.88
2019-01-21T09:56:12.296Z,50.58
2019-01-21T09:58:41.660Z,52.38
2019-01-21T10:01:10.391Z,50.48
2019-01-21T10:03:39.064Z,48.05
2019-01-21T10:06:07.847Z,51.42
2019-01-21T10:09:12.366Z,59.17
2019-01-21T10:11:52.137Z,46.50
2019-01-21T10:14:29.344Z,51.00
2019-01-21T10:17:09.608Z,49.00
2019-01-21T10:19:41.105Z,48.35
2019-01-21T10:22:27.705Z,49.55
2019-01-21T10:25:23.407Z,46.35
2019-01-21T10:28:00.477Z,45.08
2019-01-21T10:30:32.096Z,45.85
2019-01-21T10:33:30.692Z,45.98
2019-01-21T10:36:17.111Z,48.45
2019-01-21T10:39:00.873Z,48.83
2019-01-21T10:41:38.231Z,46.95
2019-01-21T10:44:12.556Z,48.30
2019-01-21T10:47:08.216Z,49.87
2019-01-21T10:49:48.872Z,49.88
2019-01-21T10:52:35.497Z,48.95
2019-01-21T10:55:29.795Z,52.88
2019-01-21T10:58:03.864Z,47.48
2019-01-21T11:00:56.575Z,47.30
2019-01-21T11:03:40.070Z,47.17
2019-01-21T11:06:14.408Z,48.80
2019-01-21T11:08:48.850Z,49.50
2019-01-21T11:11:54.085Z,45.43
2019-01-21T11:14:37.958Z,44.75
2019-01-21T11:17:24.383Z,46.33
2019-01-21T11:20:07.184Z,47.20
2019-01-21T11:22:42.121Z,44.60
2019-01-21T11:25:33.609Z,44.13
2019-01-21T11:28:14.128Z,42.67
2019-01-21T11:30:57.659Z,43.00
2019-01-21T11:33:31.811Z,40.58
2019-01-21T11:36:12.245Z,44.98
2019-01-21T11:38:43.792Z,41.28
2019-01-21T11:41:15.279Z,41.75
2019-01-21T11:43:46.771Z,41.05
2019-01-21T11:46:18.276Z,41.85
2019-01-21T11:48:59.188Z,37.65
2019-01-21T11:51:42.665Z,40.35
2019-01-21T11:54:32.056Z,40.05
2019-01-21T11:57:20.759Z,39.10
2019-01-21T11:59:57.943Z,39.63
2019-01-21T12:02:37.949Z,37.58
2019-01-21T12:05:09.432Z,38.43
2019-01-21T12:08:15.577Z,37.80
2019-01-21T12:11:08.292Z,37.77
2019-01-21T12:14:08.353Z,37.98
2019-01-21T12:16:51.808Z,39.95
2019-01-21T12:19:29.256Z,37.95
2019-01-21T12:22:09.611Z,39.58
2019-01-21T12:24:38.295Z,37.33
2019-01-21T12:27:21.841Z,38.50
2019-01-21T12:30:25.596Z,39.58
2019-01-21T12:33:11.976Z,38.02
2019-01-21T12:36:06.040Z,41.18
2019-01-21T12:38:40.343Z,39.90
2019-01-21T12:41:21.616Z,38.65
2019-01-21T12:43:53.818Z,38.00
2019-01-21T12:46:40.308Z,40.03
2019-01-21T12:49:28.201Z,36.95
2019-01-21T12:52:05.307Z,37.50
2019-01-21T12:54:48.576Z,37.55
2019-01-21T12:57:28.396Z,38.63
2019-01-21T13:00:19.843Z,37.15
2019-01-21T13:02:51.335Z,36.45
2019-01-21T13:05:25.496Z,37.00
2019-01-21T13:08:05.768Z,37.42
2019-01-21T13:10:55.657Z,36.50
2019-01-21T13:13:51.452Z,37.03
2019-01-21T13:16:25.713Z,36.97
2019-01-21T13:19:16.243Z,35.92
2019-01-21T13:22:04.228Z,37.45
2019-01-21T13:24:51.359Z,37.33
2019-01-21T13:27:40.972Z,36.75
2019-01-21T13:30:15.229Z,36.50
2019-01-21T13:32:46.726Z,36.83
2019-01-21T13:35:23.899Z,39.00
2019-01-21T13:38:01.356Z,38.50
2019-01-21T13:40:41.373Z,38.05
2019-01-21T13:43:17.627Z,39.42
2019-01-21T13:46:23.792Z,38.92
2019-01-21T13:49:06.640Z,39.90
2019-01-21T13:52:12.894Z,40.80
2019-01-21T13:54:53.044Z,40.40
2019-01-21T13:57:42.437Z,39.83
2019-01-21T14:00:22.279Z,39.42
2019-01-21T14:03:13.377Z,39.45
2019-01-21T14:06:18.373Z,38.70
2019-01-21T14:09:01.838Z,38.92
2019-01-21T14:11:45.429Z,40.88
2019-01-21T14:14:19.896Z,37.67
2019-01-21T14:17:00.769Z,37.45
2019-01-21T14:19:34.963Z,38.55
2019-01-21T14:22:15.595Z,38.13
2019-01-21T14:24:56.132Z,40.58
2019-01-21T14:27:42.673Z,39.20
2019-01-21T14:30:30.712Z,42.58
2019-01-21T14:33:13.920Z,39.50
2019-01-21T14:35:51.342Z,39.55
2019-01-21T14:38:29.027Z,40.30
2019-01-21T14:41:06.362Z,39.75
2019-01-21T14:43:46.484Z,38.60
2019-01-21T14:46:33.233Z,39.63
2019-01-21T14:49:21.302Z,39.40
2019-01-21T14:52:09.187Z,39.88
2019-01-21T14:54:51.999Z,39.27
2019-01-21T14:57:35.514Z,39.40
2019-01-21T15:00:23.641Z,40.08
2019-01-21T15:03:03.729Z,41.90
2019-01-21T15:05:53.540Z,40.63
2019-01-21T15:08:25.370Z,39.70
2019-01-21T15:10:57.023Z,42.20
2019-01-21T15:13:34.400Z,38.60
2019-01-21T15:16:23.836Z,40.35
2019-01-21T15:19:01.110Z,40.90
2019-01-21T15:21:41.386Z,39.48
2019-01-21T15:24:18.767Z,42.13
2019-01-21T15:27:04.687Z,40.58
2019-01-21T15:29:38.982Z,40.50
2019-01-21T15:32:25.092Z,42.40
2019-01-21T15:34:59.569Z,41.42
2019-01-21T15:37:55.598Z,42.30
2019-01-21T15:40:48.144Z,42.13
2019-01-21T15:43:46.556Z,42.03
2019-01-21T15:46:32.953Z,43.08
2019-01-21T15:49:13.083Z,43.28
2019-01-21T15:51:53.392Z,41.42
2019-01-21T15:54:36.955Z,40.73
2019-01-21T15:57:14.208Z,39.50
2019-01-21T16:00:00.599Z,41.23
2019-01-21T16:02:53.495Z,39.98
2019-01-21T16:05:40.135Z,40.28
2019-01-21T16:08:11.720Z,39.73
2019-01-21T16:10:49.112Z,40.48
2019-01-21T16:13:29.497Z,40.28
2019-01-21T16:16:13.003Z,39.85
2019-01-21T16:18:47.472Z,40.15
2019-01-21T16:21:37.112Z,38.92
2019-01-21T16:24:23.833Z,41.50
2019-01-21T16:26:57.976Z,40.58
2019-01-21T16:29:29.498Z,40.58
2019-01-21T16:31:59.456Z,40.90
2019-01-21T16:34:46.854Z,40.23
2019-01-21T16:37:20.807Z,39.63
2019-01-21T16:39:54.860Z,38.95
2019-01-21T16:42:22.248Z,40.05
2019-01-21T16:44:50.662Z,39.45
2019-01-21T16:47:19.123Z,38.35
2019-01-21T16:49:47.532Z,37.80
2019-01-21T16:52:16.005Z,40.35
2019-01-21T16:54:44.439Z,38.67
2019-01-21T16:57:12.866Z,39.50
2019-01-21T16:59:41.314Z,40.13
2019-01-21T17:02:09.785Z,39.53
2019-01-21T17:04:38.190Z,39.98
2019-01-21T17:07:06.613Z,39.70
2019-01-21T17:09:35.020Z,40.25
2019-01-21T17:12:03.427Z,39.67
2019-01-21T17:14:31.849Z,39.38
2019-01-21T17:17:00.251Z,38.98
2019-01-21T17:19:28.668Z,38.35
2019-01-21T17:21:57.128Z,39.20
2019-01-21T17:24:25.561Z,39.45
2019-01-21T17:26:53.997Z,39.10
2019-01-21T17:29:22.403Z,40.03
2019-01-21T17:31:50.815Z,40.95
2019-01-21T17:34:19.314Z,40.40
2019-01-21T17:36:47.699Z,40.07
2019-01-21T17:39:16.125Z,39.30
2019-01-21T17:41:44.508Z,41.58
2019-01-21T17:44:12.947Z,39.98
2019-01-21T17:46:41.372Z,39.98
2019-01-21T17:49:10.775Z,40.83
2019-01-21T17:51:39.179Z,38.33
2019-01-21T17:54:07.601Z,40.50
2019-01-21T17:56:36.074Z,39.15
2019-01-21T17:59:04.576Z,39.25
2019-01-21T18:01:35.757Z,40.00
2019-01-21T18:04:03.150Z,40.20
2019-01-21T18:06:31.587Z,37.98
2019-01-21T18:09:00.003Z,39.23
2019-01-21T18:11:28.432Z,37.38
2019-01-21T18:13:56.860Z,41.33
2019-01-21T18:16:25.306Z,38.15
2019-01-21T18:18:54.134Z,41.37
2019-01-21T18:21:22.521Z,38.87
2019-01-21T18:23:50.941Z,39.63
2019-01-21T18:26:19.356Z,40.00
2019-01-21T18:28:47.756Z,41.13
2019-01-21T18:31:18.066Z,40.33
2019-01-21T18:33:46.507Z,39.80
2019-01-21T18:36:15.546Z,42.60
2019-01-21T18:38:44.069Z,41.75
2019-01-21T18:41:13.352Z,92.30
2019-01-21T18:43:41.792Z,41.63
2019-01-21T18:46:10.276Z,44.40
2019-01-21T18:48:38.727Z,42.27
2019-01-21T18:51:07.203Z,42.00
2019-01-21T18:53:35.632Z,45.27
2019-01-21T18:56:04.386Z,40.67
2019-01-21T18:58:33.093Z,42.20
2019-01-21T19:01:01.492Z,41.90
2019-01-21T19:03:29.891Z,40.45
2019-01-21T19:05:58.388Z,40.35
2019-01-21T19:08:26.792Z,41.77
2019-01-21T19:10:55.223Z,42.15
2019-01-21T19:13:23.636Z,41.63
2019-01-21T19:15:52.060Z,42.53
2019-01-21T19:18:20.459Z,42.13
2019-01-21T19:20:48.868Z,42.00
2019-01-21T19:23:17.273Z,41.55
2019-01-21T19:25:45.715Z,42.17
2019-01-21T19:28:14.108Z,44.73
2019-01-21T19:30:42.532Z,43.25
2019-01-21T19:33:10.931Z,43.02
2019-01-21T19:35:39.338Z,45.15
2019-01-21T19:38:07.753Z,42.90
2019-01-21T19:40:36.175Z,43.55
2019-01-21T19:43:04.576Z,45.10
2019-01-21T19:45:33.085Z,43.68
2019-01-21T19:48:01.492Z,43.90
2019-01-21T19:50:29.927Z,44.03
2019-01-21T19:52:58.340Z,43.73
2019-01-21T19:55:29.687Z,45.33
2019-01-21T19:57:58.107Z,40.40
2019-01-21T20:00:26.586Z,48.00
2019-01-21T20:02:54.993Z,45.80
2019-01-21T20:05:23.400Z,44.45
2019-01-21T20:07:51.800Z,44.20
2019-01-21T20:10:22.244Z,42.90
2019-01-21T20:12:51.089Z,43.40
2019-01-21T20:15:19.875Z,44.23
2019-01-21T20:17:48.299Z,44.07
2019-01-21T20:20:25.363Z,42.60
2019-01-21T20:22:57.361Z,43.13
2019-01-21T20:25:24.016Z,44.60
2019-01-21T20:27:52.639Z,42.70
2019-01-21T20:30:23.088Z,42.50
2019-01-21T20:32:51.828Z,44.33
2019-01-21T20:35:20.240Z,42.60
2019-01-21T20:37:48.645Z,43.95
2019-01-21T20:40:19.964Z,40.95
2019-01-21T20:42:48.391Z,43.15
2019-01-21T20:45:17.164Z,43.68
2019-01-21T20:47:45.592Z,43.75
2019-01-21T20:50:17.024Z,43.35
2019-01-21T20:52:45.527Z,45.40
2019-01-21T20:55:14.671Z,43.45
2019-01-21T20:57:43.087Z,44.85
2019-01-21T21:00:17.444Z,43.98
2019-01-21T21:02:45.861Z,44.18
2019-01-21T21:05:14.505Z,43.10
2019-01-21T21:07:42.915Z,42.30
2019-01-21T21:10:12.476Z,45.17
2019-01-21T21:12:40.879Z,45.60
2019-01-21T21:15:18.171Z,44.73
2019-01-21T21:17:46.588Z,45.00
2019-01-21T21:20:15.427Z,47.48
2019-01-21T21:22:43.860Z,50.15
2019-01-21T21:25:15.367Z,49.42
2019-01-21T21:27:43.783Z,51.90
2019-01-21T21:30:15.723Z,50.30
2019-01-21T21:32:44.153Z,49.35
2019-01-21T21:35:12.633Z,49.23
2019-01-21T21:37:41.428Z,51.05
2019-01-21T21:40:13.125Z,47.48
2019-01-21T21:42:41.525Z,49.50
2019-01-21T21:45:12.652Z,54.98
2019-01-21T21:47:41.054Z,55.90
2019-01-21T21:50:13.048Z,53.05
2019-01-21T21:52:41.467Z,55.67
2019-01-21T21:55:11.347Z,53.28
2019-01-21T21:57:39.757Z,62.13
2019-01-21T22:00:15.118Z,57.03
2019-01-21T22:02:43.573Z,66.02
2019-01-21T22:05:12.236Z,63.42
2019-01-21T22:07:40.729Z,57.05
2019-01-21T22:10:11.906Z,62.05
2019-01-21T22:12:40.372Z,62.10
2019-01-21T22:15:12.509Z,62.93
2019-01-21T22:17:40.903Z,65.85
2019-01-21T22:20:14.645Z,64.53
2019-01-21T22:22:43.148Z,63.37
2019-01-21T22:25:12.008Z,64.20
2019-01-21T22:27:40.414Z,69.13
2019-01-21T22:30:14.553Z,63.78
2019-01-21T22:32:42.960Z,71.92
2019-01-21T22:35:11.440Z,77.60
2019-01-21T22:37:39.851Z,77.03
2019-01-21T22:40:14.080Z,78.20
2019-01-21T22:42:42.549Z,77.82
2019-01-21T22:45:12.803Z,83.20
2019-01-21T22:47:41.200Z,81.20
2019-01-21T22:50:11.751Z,89.22
2019-01-21T22:52:41.973Z,93.07
2019-01-21T22:55:12.271Z,85.07
2019-01-21T22:57:40.751Z,91.60
2019-01-21T23:00:15.249Z,100.05
2019-01-21T23:02:43.930Z,92.25
2019-01-21T23:05:12.631Z,94.20
2019-01-21T23:07:41.052Z,95.72
2019-01-21T23:10:09.704Z,95.65
2019-01-21T23:12:38.133Z,90.30
2019-01-21T23:15:08.383Z,90.10
2019-01-21T23:17:36.794Z,95.32
2019-01-21T23:20:08.523Z,86.40
2019-01-21T23:22:36.941Z,85.55
2019-01-21T23:25:06.162Z,94.17
2019-01-21T23:27:34.593Z,79.12
2019-01-21T23:30:03.097Z,88.85
2019-01-21T23:32:31.584Z,90.12
2019-01-21T23:35:00.005Z,84.03
2019-01-21T23:37:28.424Z,77.80
2019-01-21T23:39:56.868Z,80.42
2019-01-21T23:42:25.653Z,78.35
2019-01-21T23:44:54.057Z,79.65
2019-01-21T23:47:22.480Z,82.82
2019-01-21T23:49:51.928Z,83.20
2019-01-21T23:52:20.328Z,92.40
2019-01-21T23:54:48.728Z,85.97
2019-01-21T23:57:17.148Z,79.93
2019-01-21T23:59:45.552Z,85.53
